sensor_id;sensor_type;location;lat;lon;timestamp;temperature;humidity
59505;DHT22;45321;53.200;5.814;2023-08-08T00:01:10;17.00;74.80
59505;DHT22;45321;53.200;5.814;2023-08-08T00:03:36;17.00;74.90
59505;DHT22;45321;53.200;5.814;2023-08-08T00:06:02;17.00;75.10
59505;DHT22;45321;53.200;5.814;2023-08-08T00:08:28;17.00;74.90
59505;DHT22;45321;53.200;5.814;2023-08-08T00:10:53;17.00;74.80
59505;DHT22;45321;53.200;5.814;2023-08-08T00:13:19;17.00;74.80
59505;DHT22;45321;53.200;5.814;2023-08-08T00:15:45;17.00;75.00
59505;DHT22;45321;53.200;5.814;2023-08-08T00:18:11;17.00;74.70
59505;DHT22;45321;53.200;5.814;2023-08-08T00:20:37;17.00;74.60
59505;DHT22;45321;53.200;5.814;2023-08-08T00:23:03;16.90;74.60
59505;DHT22;45321;53.200;5.814;2023-08-08T00:25:29;16.90;74.60
59505;DHT22;45321;53.200;5.814;2023-08-08T00:27:54;16.90;74.60
59505;DHT22;45321;53.200;5.814;2023-08-08T00:30:20;16.90;74.80
59505;DHT22;45321;53.200;5.814;2023-08-08T00:32:46;16.80;74.80
59505;DHT22;45321;53.200;5.814;2023-08-08T00:35:12;16.80;75.10
59505;DHT22;45321;53.200;5.814;2023-08-08T00:37:37;16.90;75.00
59505;DHT22;45321;53.200;5.814;2023-08-08T00:40:03;16.90;75.30
59505;DHT22;45321;53.200;5.814;2023-08-08T00:42:29;16.80;75.30
59505;DHT22;45321;53.200;5.814;2023-08-08T00:44:55;16.80;75.50
59505;DHT22;45321;53.200;5.814;2023-08-08T00:47:27;16.80;75.80
59505;DHT22;45321;53.200;5.814;2023-08-08T00:49:53;16.80;75.50
59505;DHT22;45321;53.200;5.814;2023-08-08T00:52:19;16.80;75.90
59505;DHT22;45321;53.200;5.814;2023-08-08T00:54:46;16.80;75.60
59505;DHT22;45321;53.200;5.814;2023-08-08T00:57:12;16.80;75.80
59505;DHT22;45321;53.200;5.814;2023-08-08T00:59:38;16.80;76.10
59505;DHT22;45321;53.200;5.814;2023-08-08T01:02:04;16.80;76.40
59505;DHT22;45321;53.200;5.814;2023-08-08T01:04:29;16.80;76.10
59505;DHT22;45321;53.200;5.814;2023-08-08T01:07:15;16.80;76.00
59505;DHT22;45321;53.200;5.814;2023-08-08T01:09:51;16.80;76.20
59505;DHT22;45321;53.200;5.814;2023-08-08T01:12:18;16.80;76.10
59505;DHT22;45321;53.200;5.814;2023-08-08T01:14:45;16.70;75.90
59505;DHT22;45321;53.200;5.814;2023-08-08T01:17:12;16.70;76.00
59505;DHT22;45321;53.200;5.814;2023-08-08T01:19:38;16.70;75.70
59505;DHT22;45321;53.200;5.814;2023-08-08T01:22:06;16.70;75.90
59505;DHT22;45321;53.200;5.814;2023-08-08T01:24:33;16.70;75.70
59505;DHT22;45321;53.200;5.814;2023-08-08T01:27:02;16.70;75.70
59505;DHT22;45321;53.200;5.814;2023-08-08T01:29:29;16.70;75.60
59505;DHT22;45321;53.200;5.814;2023-08-08T01:31:55;16.70;75.30
59505;DHT22;45321;53.200;5.814;2023-08-08T01:34:21;16.70;75.30
59505;DHT22;45321;53.200;5.814;2023-08-08T01:36:57;16.70;75.10
59505;DHT22;45321;53.200;5.814;2023-08-08T01:39:30;16.70;74.80
59505;DHT22;45321;53.200;5.814;2023-08-08T01:41:56;16.60;75.00
59505;DHT22;45321;53.200;5.814;2023-08-08T01:44:24;16.60;75.00
59505;DHT22;45321;53.200;5.814;2023-08-08T01:46:52;16.60;75.10
59505;DHT22;45321;53.200;5.814;2023-08-08T01:49:18;16.60;75.00
59505;DHT22;45321;53.200;5.814;2023-08-08T01:51:43;16.60;75.10
59505;DHT22;45321;53.200;5.814;2023-08-08T01:54:09;16.60;75.20
59505;DHT22;45321;53.200;5.814;2023-08-08T01:56:35;16.60;75.20
59505;DHT22;45321;53.200;5.814;2023-08-08T01:59:01;16.60;75.40
59505;DHT22;45321;53.200;5.814;2023-08-08T02:01:26;16.60;75.00
59505;DHT22;45321;53.200;5.814;2023-08-08T02:03:52;16.60;75.30
59505;DHT22;45321;53.200;5.814;2023-08-08T02:06:18;16.60;75.20
59505;DHT22;45321;53.200;5.814;2023-08-08T02:08:44;16.60;75.20
59505;DHT22;45321;53.200;5.814;2023-08-08T02:11:10;16.60;75.40
59505;DHT22;45321;53.200;5.814;2023-08-08T02:13:36;16.60;75.60
59505;DHT22;45321;53.200;5.814;2023-08-08T02:16:02;16.60;75.80
59505;DHT22;45321;53.200;5.814;2023-08-08T02:18:27;16.60;76.20
59505;DHT22;45321;53.200;5.814;2023-08-08T02:20:53;16.50;76.30
59505;DHT22;45321;53.200;5.814;2023-08-08T02:23:19;16.50;76.60
59505;DHT22;45321;53.200;5.814;2023-08-08T02:25:44;16.60;76.60
59505;DHT22;45321;53.200;5.814;2023-08-08T02:28:10;16.60;77.30
59505;DHT22;45321;53.200;5.814;2023-08-08T02:30:36;16.50;78.90
59505;DHT22;45321;53.200;5.814;2023-08-08T02:33:02;16.50;79.90
59505;DHT22;45321;53.200;5.814;2023-08-08T02:35:27;16.50;79.50
59505;DHT22;45321;53.200;5.814;2023-08-08T02:37:53;16.50;79.70
59505;DHT22;45321;53.200;5.814;2023-08-08T02:40:19;16.40;79.40
59505;DHT22;45321;53.200;5.814;2023-08-08T02:42:45;16.30;79.40
59505;DHT22;45321;53.200;5.814;2023-08-08T02:45:10;16.30;79.10
59505;DHT22;45321;53.200;5.814;2023-08-08T02:47:36;16.30;79.50
59505;DHT22;45321;53.200;5.814;2023-08-08T02:50:02;16.20;79.60
59505;DHT22;45321;53.200;5.814;2023-08-08T02:52:28;16.20;79.10
59505;DHT22;45321;53.200;5.814;2023-08-08T02:54:53;16.20;79.60
59505;DHT22;45321;53.200;5.814;2023-08-08T02:57:19;16.10;79.60
59505;DHT22;45321;53.200;5.814;2023-08-08T02:59:45;16.10;79.80
59505;DHT22;45321;53.200;5.814;2023-08-08T03:02:10;16.10;79.10
59505;DHT22;45321;53.200;5.814;2023-08-08T03:04:36;16.10;79.40
59505;DHT22;45321;53.200;5.814;2023-08-08T03:07:02;16.00;79.30
59505;DHT22;45321;53.200;5.814;2023-08-08T03:09:30;16.10;79.30
59505;DHT22;45321;53.200;5.814;2023-08-08T03:11:56;16.00;79.60
59505;DHT22;45321;53.200;5.814;2023-08-08T03:14:21;16.00;79.90
59505;DHT22;45321;53.200;5.814;2023-08-08T03:16:47;16.00;80.00
59505;DHT22;45321;53.200;5.814;2023-08-08T03:19:13;16.00;79.90
59505;DHT22;45321;53.200;5.814;2023-08-08T03:21:38;16.00;80.80
59505;DHT22;45321;53.200;5.814;2023-08-08T03:24:04;16.00;81.30
59505;DHT22;45321;53.200;5.814;2023-08-08T03:26:30;16.00;81.70
59505;DHT22;45321;53.200;5.814;2023-08-08T03:28:56;15.90;82.20
59505;DHT22;45321;53.200;5.814;2023-08-08T03:31:22;15.90;82.20
59505;DHT22;45321;53.200;5.814;2023-08-08T03:33:48;15.90;82.40
59505;DHT22;45321;53.200;5.814;2023-08-08T03:36:14;15.90;83.00
59505;DHT22;45321;53.200;5.814;2023-08-08T03:38:40;15.90;83.30
59505;DHT22;45321;53.200;5.814;2023-08-08T03:41:09;15.90;83.30
59505;DHT22;45321;53.200;5.814;2023-08-08T03:43:35;15.90;83.00
59505;DHT22;45321;53.200;5.814;2023-08-08T03:46:01;15.90;82.80
59505;DHT22;45321;53.200;5.814;2023-08-08T03:48:26;15.90;82.60
59505;DHT22;45321;53.200;5.814;2023-08-08T03:50:52;15.90;82.80
59505;DHT22;45321;53.200;5.814;2023-08-08T03:53:18;15.90;82.70
59505;DHT22;45321;53.200;5.814;2023-08-08T03:55:44;15.80;82.40
59505;DHT22;45321;53.200;5.814;2023-08-08T03:58:10;15.80;82.30
59505;DHT22;45321;53.200;5.814;2023-08-08T04:00:35;15.80;82.10
59505;DHT22;45321;53.200;5.814;2023-08-08T04:03:03;15.80;82.60
59505;DHT22;45321;53.200;5.814;2023-08-08T04:05:28;15.70;82.20
59505;DHT22;45321;53.200;5.814;2023-08-08T04:07:54;15.70;81.70
59505;DHT22;45321;53.200;5.814;2023-08-08T04:10:20;15.70;82.00
59505;DHT22;45321;53.200;5.814;2023-08-08T04:12:46;15.70;82.00
59505;DHT22;45321;53.200;5.814;2023-08-08T04:15:11;15.70;82.30
59505;DHT22;45321;53.200;5.814;2023-08-08T04:17:37;15.70;82.20
59505;DHT22;45321;53.200;5.814;2023-08-08T04:20:03;15.60;82.20
59505;DHT22;45321;53.200;5.814;2023-08-08T04:22:31;15.70;81.70
59505;DHT22;45321;53.200;5.814;2023-08-08T04:24:56;15.60;82.00
59505;DHT22;45321;53.200;5.814;2023-08-08T04:27:22;15.60;82.30
59505;DHT22;45321;53.200;5.814;2023-08-08T04:29:48;15.60;82.10
59505;DHT22;45321;53.200;5.814;2023-08-08T04:32:14;15.70;81.70
59505;DHT22;45321;53.200;5.814;2023-08-08T04:34:39;15.60;82.20
59505;DHT22;45321;53.200;5.814;2023-08-08T04:37:05;15.60;82.00
59505;DHT22;45321;53.200;5.814;2023-08-08T04:39:31;15.70;81.30
59505;DHT22;45321;53.200;5.814;2023-08-08T04:41:56;15.70;81.80
59505;DHT22;45321;53.200;5.814;2023-08-08T04:44:22;15.70;82.10
59505;DHT22;45321;53.200;5.814;2023-08-08T04:46:48;15.60;81.30
59505;DHT22;45321;53.200;5.814;2023-08-08T04:49:13;15.70;81.20
59505;DHT22;45321;53.200;5.814;2023-08-08T04:51:39;15.70;81.60
59505;DHT22;45321;53.200;5.814;2023-08-08T04:54:05;15.70;80.90
59505;DHT22;45321;53.200;5.814;2023-08-08T04:56:31;15.70;81.20
59505;DHT22;45321;53.200;5.814;2023-08-08T04:58:56;15.70;81.00
59505;DHT22;45321;53.200;5.814;2023-08-08T05:01:22;15.70;81.10
59505;DHT22;45321;53.200;5.814;2023-08-08T05:03:48;15.70;81.90
59505;DHT22;45321;53.200;5.814;2023-08-08T05:06:14;15.70;81.30
59505;DHT22;45321;53.200;5.814;2023-08-08T05:08:40;15.70;81.90
59505;DHT22;45321;53.200;5.814;2023-08-08T05:11:05;15.70;82.10
59505;DHT22;45321;53.200;5.814;2023-08-08T05:13:31;15.70;82.20
59505;DHT22;45321;53.200;5.814;2023-08-08T05:15:57;15.70;81.90
59505;DHT22;45321;53.200;5.814;2023-08-08T05:18:22;15.70;81.30
59505;DHT22;45321;53.200;5.814;2023-08-08T05:20:48;15.70;81.50
59505;DHT22;45321;53.200;5.814;2023-08-08T05:23:14;15.80;81.90
59505;DHT22;45321;53.200;5.814;2023-08-08T05:25:40;15.70;81.90
59505;DHT22;45321;53.200;5.814;2023-08-08T05:28:06;15.70;81.60
59505;DHT22;45321;53.200;5.814;2023-08-08T05:30:31;15.80;81.60
59505;DHT22;45321;53.200;5.814;2023-08-08T05:32:57;15.80;82.30
59505;DHT22;45321;53.200;5.814;2023-08-08T05:35:23;15.80;81.80
59505;DHT22;45321;53.200;5.814;2023-08-08T05:37:49;15.80;82.00
59505;DHT22;45321;53.200;5.814;2023-08-08T05:40:14;15.80;82.00
59505;DHT22;45321;53.200;5.814;2023-08-08T05:42:40;15.80;82.00
59505;DHT22;45321;53.200;5.814;2023-08-08T05:45:07;15.80;81.80
59505;DHT22;45321;53.200;5.814;2023-08-08T05:47:33;15.80;80.70
59505;DHT22;45321;53.200;5.814;2023-08-08T05:49:59;15.80;81.60
59505;DHT22;45321;53.200;5.814;2023-08-08T05:52:24;15.80;81.50
59505;DHT22;45321;53.200;5.814;2023-08-08T05:54:50;15.90;81.20
59505;DHT22;45321;53.200;5.814;2023-08-08T05:57:16;15.90;81.10
59505;DHT22;45321;53.200;5.814;2023-08-08T05:59:41;15.90;81.10
59505;DHT22;45321;53.200;5.814;2023-08-08T06:02:10;15.90;81.50
59505;DHT22;45321;53.200;5.814;2023-08-08T06:04:36;15.90;81.40
59505;DHT22;45321;53.200;5.814;2023-08-08T06:07:01;15.90;81.10
59505;DHT22;45321;53.200;5.814;2023-08-08T06:09:27;16.00;81.20
59505;DHT22;45321;53.200;5.814;2023-08-08T06:11:53;16.00;80.50
59505;DHT22;45321;53.200;5.814;2023-08-08T06:14:19;16.00;80.90
59505;DHT22;45321;53.200;5.814;2023-08-08T06:16:45;16.00;81.00
59505;DHT22;45321;53.200;5.814;2023-08-08T06:19:11;16.00;81.00
59505;DHT22;45321;53.200;5.814;2023-08-08T06:21:40;16.00;81.40
59505;DHT22;45321;53.200;5.814;2023-08-08T06:24:06;16.10;80.80
59505;DHT22;45321;53.200;5.814;2023-08-08T06:26:31;16.10;80.50
59505;DHT22;45321;53.200;5.814;2023-08-08T06:28:57;16.10;80.10
59505;DHT22;45321;53.200;5.814;2023-08-08T06:31:23;16.20;79.90
59505;DHT22;45321;53.200;5.814;2023-08-08T06:33:49;16.20;79.90
59505;DHT22;45321;53.200;5.814;2023-08-08T06:36:14;16.20;80.40
59505;DHT22;45321;53.200;5.814;2023-08-08T06:38:40;16.30;80.20
59505;DHT22;45321;53.200;5.814;2023-08-08T06:41:06;16.30;80.00
59505;DHT22;45321;53.200;5.814;2023-08-08T06:43:31;16.40;80.70
59505;DHT22;45321;53.200;5.814;2023-08-08T06:45:57;16.50;80.10
59505;DHT22;45321;53.200;5.814;2023-08-08T06:48:24;16.50;79.20
59505;DHT22;45321;53.200;5.814;2023-08-08T06:50:49;16.60;79.20
59505;DHT22;45321;53.200;5.814;2023-08-08T06:53:15;16.60;78.50
59505;DHT22;45321;53.200;5.814;2023-08-08T06:55:41;16.60;78.90
59505;DHT22;45321;53.200;5.814;2023-08-08T06:58:07;16.70;79.70
59505;DHT22;45321;53.200;5.814;2023-08-08T07:00:32;16.70;78.80
59505;DHT22;45321;53.200;5.814;2023-08-08T07:02:58;16.80;79.50
59505;DHT22;45321;53.200;5.814;2023-08-08T07:05:24;16.80;79.10
59505;DHT22;45321;53.200;5.814;2023-08-08T07:07:51;16.80;78.20
59505;DHT22;45321;53.200;5.814;2023-08-08T07:10:18;16.80;78.10
59505;DHT22;45321;53.200;5.814;2023-08-08T07:12:44;16.80;78.20
59505;DHT22;45321;53.200;5.814;2023-08-08T07:15:10;16.90;78.10
59505;DHT22;45321;53.200;5.814;2023-08-08T07:17:36;16.90;78.70
59505;DHT22;45321;53.200;5.814;2023-08-08T07:20:02;16.90;78.50
59505;DHT22;45321;53.200;5.814;2023-08-08T07:22:28;17.00;78.30
59505;DHT22;45321;53.200;5.814;2023-08-08T07:24:54;17.00;78.10
59505;DHT22;45321;53.200;5.814;2023-08-08T07:27:19;17.00;77.70
59505;DHT22;45321;53.200;5.814;2023-08-08T07:29:45;17.00;78.70
59505;DHT22;45321;53.200;5.814;2023-08-08T07:32:11;17.10;78.60
59505;DHT22;45321;53.200;5.814;2023-08-08T07:34:37;17.10;77.70
59505;DHT22;45321;53.200;5.814;2023-08-08T07:37:03;17.10;77.30
59505;DHT22;45321;53.200;5.814;2023-08-08T07:39:29;17.20;77.70
59505;DHT22;45321;53.200;5.814;2023-08-08T07:41:54;17.20;78.10
59505;DHT22;45321;53.200;5.814;2023-08-08T07:44:20;17.30;77.60
59505;DHT22;45321;53.200;5.814;2023-08-08T07:46:46;17.30;77.70
59505;DHT22;45321;53.200;5.814;2023-08-08T07:49:12;17.30;78.00
59505;DHT22;45321;53.200;5.814;2023-08-08T07:51:38;17.30;77.90
59505;DHT22;45321;53.200;5.814;2023-08-08T07:54:04;17.30;77.60
59505;DHT22;45321;53.200;5.814;2023-08-08T07:56:35;17.30;77.10
59505;DHT22;45321;53.200;5.814;2023-08-08T07:59:00;17.40;76.90
59505;DHT22;45321;53.200;5.814;2023-08-08T08:01:27;17.40;77.70
59505;DHT22;45321;53.200;5.814;2023-08-08T08:03:53;17.40;76.80
59505;DHT22;45321;53.200;5.814;2023-08-08T08:06:19;17.40;77.10
59505;DHT22;45321;53.200;5.814;2023-08-08T08:08:45;17.40;77.00
59505;DHT22;45321;53.200;5.814;2023-08-08T08:11:11;17.50;77.00
59505;DHT22;45321;53.200;5.814;2023-08-08T08:13:39;17.60;77.00
59505;DHT22;45321;53.200;5.814;2023-08-08T08:16:05;17.60;76.70
59505;DHT22;45321;53.200;5.814;2023-08-08T08:18:31;17.70;76.10
59505;DHT22;45321;53.200;5.814;2023-08-08T08:20:57;17.70;75.40
59505;DHT22;45321;53.200;5.814;2023-08-08T08:23:23;17.70;75.90
59505;DHT22;45321;53.200;5.814;2023-08-08T08:25:49;17.80;75.70
59505;DHT22;45321;53.200;5.814;2023-08-08T08:28:16;17.80;76.80
59505;DHT22;45321;53.200;5.814;2023-08-08T08:30:42;17.80;76.80
59505;DHT22;45321;53.200;5.814;2023-08-08T08:33:07;17.80;76.90
59505;DHT22;45321;53.200;5.814;2023-08-08T08:35:35;17.70;76.10
59505;DHT22;45321;53.200;5.814;2023-08-08T08:38:00;17.80;77.20
59505;DHT22;45321;53.200;5.814;2023-08-08T08:40:28;17.80;76.20
59505;DHT22;45321;53.200;5.814;2023-08-08T08:42:54;17.80;76.00
59505;DHT22;45321;53.200;5.814;2023-08-08T08:45:20;17.80;75.90
59505;DHT22;45321;53.200;5.814;2023-08-08T08:47:47;17.70;76.40
59505;DHT22;45321;53.200;5.814;2023-08-08T08:50:15;17.80;76.90
59505;DHT22;45321;53.200;5.814;2023-08-08T08:52:42;17.80;76.70
59505;DHT22;45321;53.200;5.814;2023-08-08T08:55:08;17.80;76.80
59505;DHT22;45321;53.200;5.814;2023-08-08T08:57:35;18.00;76.90
59505;DHT22;45321;53.200;5.814;2023-08-08T09:00:01;18.10;75.90
59505;DHT22;45321;53.200;5.814;2023-08-08T09:02:28;18.20;75.50
59505;DHT22;45321;53.200;5.814;2023-08-08T09:04:54;18.40;75.90
59505;DHT22;45321;53.200;5.814;2023-08-08T09:07:23;18.60;75.50
59505;DHT22;45321;53.200;5.814;2023-08-08T09:09:52;18.60;74.50
59505;DHT22;45321;53.200;5.814;2023-08-08T09:12:18;18.60;73.50
59505;DHT22;45321;53.200;5.814;2023-08-08T09:14:44;18.60;72.70
59505;DHT22;45321;53.200;5.814;2023-08-08T09:17:13;18.50;73.20
59505;DHT22;45321;53.200;5.814;2023-08-08T09:19:42;18.40;74.20
59505;DHT22;45321;53.200;5.814;2023-08-08T09:22:09;18.40;74.30
59505;DHT22;45321;53.200;5.814;2023-08-08T09:24:41;18.40;73.80
59505;DHT22;45321;53.200;5.814;2023-08-08T09:27:10;18.40;73.20
59505;DHT22;45321;53.200;5.814;2023-08-08T09:29:36;18.30;72.70
59505;DHT22;45321;53.200;5.814;2023-08-08T09:32:04;18.30;72.60
59505;DHT22;45321;53.200;5.814;2023-08-08T09:34:30;18.20;72.80
59505;DHT22;45321;53.200;5.814;2023-08-08T09:36:56;18.10;73.40
59505;DHT22;45321;53.200;5.814;2023-08-08T09:39:22;18.00;74.00
59505;DHT22;45321;53.200;5.814;2023-08-08T09:41:48;18.00;75.00
59505;DHT22;45321;53.200;5.814;2023-08-08T09:44:13;18.10;75.20
59505;DHT22;45321;53.200;5.814;2023-08-08T09:46:39;18.10;75.20
59505;DHT22;45321;53.200;5.814;2023-08-08T09:49:06;18.10;74.60
59505;DHT22;45321;53.200;5.814;2023-08-08T09:51:32;18.10;74.50
59505;DHT22;45321;53.200;5.814;2023-08-08T09:53:59;18.10;75.00
59505;DHT22;45321;53.200;5.814;2023-08-08T09:56:26;18.30;75.50
59505;DHT22;45321;53.200;5.814;2023-08-08T09:58:52;18.30;74.40
59505;DHT22;45321;53.200;5.814;2023-08-08T10:01:21;18.50;72.80
59505;DHT22;45321;53.200;5.814;2023-08-08T10:03:49;18.50;72.50
59505;DHT22;45321;53.200;5.814;2023-08-08T10:06:16;18.50;70.80
59505;DHT22;45321;53.200;5.814;2023-08-08T10:08:42;18.50;70.70
59505;DHT22;45321;53.200;5.814;2023-08-08T10:11:09;18.50;70.90
59505;DHT22;45321;53.200;5.814;2023-08-08T10:13:36;18.50;70.90
59505;DHT22;45321;53.200;5.814;2023-08-08T10:16:08;18.40;70.50
59505;DHT22;45321;53.200;5.814;2023-08-08T10:18:34;18.30;69.50
59505;DHT22;45321;53.200;5.814;2023-08-08T10:21:00;18.40;69.50
59505;DHT22;45321;53.200;5.814;2023-08-08T10:23:36;18.40;69.70
59505;DHT22;45321;53.200;5.814;2023-08-08T10:26:02;18.40;69.50
59505;DHT22;45321;53.200;5.814;2023-08-08T10:28:28;18.30;69.40
59505;DHT22;45321;53.200;5.814;2023-08-08T10:31:00;18.40;69.20
59505;DHT22;45321;53.200;5.814;2023-08-08T10:33:40;18.30;69.70
59505;DHT22;45321;53.200;5.814;2023-08-08T10:36:07;18.40;69.50
59505;DHT22;45321;53.200;5.814;2023-08-08T10:38:42;18.40;68.80
59505;DHT22;45321;53.200;5.814;2023-08-08T10:41:14;18.40;69.70
59505;DHT22;45321;53.200;5.814;2023-08-08T10:43:49;18.50;69.80
59505;DHT22;45321;53.200;5.814;2023-08-08T10:48:55;18.60;71.60
59505;DHT22;45321;53.200;5.814;2023-08-08T10:51:22;18.60;70.00
59505;DHT22;45321;53.200;5.814;2023-08-08T10:53:51;18.70;67.70
59505;DHT22;45321;53.200;5.814;2023-08-08T10:56:19;18.70;68.80
59505;DHT22;45321;53.200;5.814;2023-08-08T10:58:48;18.90;66.90
59505;DHT22;45321;53.200;5.814;2023-08-08T11:01:14;19.00;67.00
59505;DHT22;45321;53.200;5.814;2023-08-08T11:03:42;19.20;67.00
59505;DHT22;45321;53.200;5.814;2023-08-08T11:06:10;19.30;67.40
59505;DHT22;45321;53.200;5.814;2023-08-08T11:08:37;19.40;66.60
59505;DHT22;45321;53.200;5.814;2023-08-08T11:11:06;19.50;66.90
59505;DHT22;45321;53.200;5.814;2023-08-08T11:13:33;19.60;65.40
59505;DHT22;45321;53.200;5.814;2023-08-08T11:15:59;19.60;66.00
59505;DHT22;45321;53.200;5.814;2023-08-08T11:18:27;19.50;65.10
59505;DHT22;45321;53.200;5.814;2023-08-08T11:20:53;19.50;65.30
59505;DHT22;45321;53.200;5.814;2023-08-08T11:23:19;19.50;67.20
59505;DHT22;45321;53.200;5.814;2023-08-08T11:25:46;19.50;66.20
59505;DHT22;45321;53.200;5.814;2023-08-08T11:28:13;19.70;67.50
59505;DHT22;45321;53.200;5.814;2023-08-08T11:30:41;19.80;67.40
59505;DHT22;45321;53.200;5.814;2023-08-08T11:33:07;19.90;66.10
59505;DHT22;45321;53.200;5.814;2023-08-08T11:35:34;19.80;65.80
59505;DHT22;45321;53.200;5.814;2023-08-08T11:38:00;19.70;65.40
59505;DHT22;45321;53.200;5.814;2023-08-08T11:40:28;19.50;65.10
59505;DHT22;45321;53.200;5.814;2023-08-08T11:42:55;19.40;65.80
59505;DHT22;45321;53.200;5.814;2023-08-08T11:45:25;19.40;65.90
59505;DHT22;45321;53.200;5.814;2023-08-08T11:47:55;19.30;65.80
59505;DHT22;45321;53.200;5.814;2023-08-08T11:50:23;19.30;66.20
59505;DHT22;45321;53.200;5.814;2023-08-08T11:52:51;19.30;67.60
59505;DHT22;45321;53.200;5.814;2023-08-08T11:55:30;19.40;66.10
59505;DHT22;45321;53.200;5.814;2023-08-08T11:57:56;19.60;67.10
59505;DHT22;45321;53.200;5.814;2023-08-08T12:00:29;19.80;66.10
59505;DHT22;45321;53.200;5.814;2023-08-08T12:02:56;19.80;63.80
59505;DHT22;45321;53.200;5.814;2023-08-08T12:05:22;19.90;64.50
59505;DHT22;45321;53.200;5.814;2023-08-08T12:07:48;19.90;63.80
59505;DHT22;45321;53.200;5.814;2023-08-08T12:10:23;19.90;63.90
59505;DHT22;45321;53.200;5.814;2023-08-08T12:12:53;19.90;64.80
59505;DHT22;45321;53.200;5.814;2023-08-08T12:15:20;19.80;65.40
59505;DHT22;45321;53.200;5.814;2023-08-08T12:17:46;19.70;65.50
59505;DHT22;45321;53.200;5.814;2023-08-08T12:20:14;19.70;65.60
59505;DHT22;45321;53.200;5.814;2023-08-08T12:22:40;19.50;64.90
59505;DHT22;45321;53.200;5.814;2023-08-08T12:25:06;19.60;65.40
59505;DHT22;45321;53.200;5.814;2023-08-08T12:27:33;19.80;66.70
59505;DHT22;45321;53.200;5.814;2023-08-08T12:29:59;19.80;65.70
59505;DHT22;45321;53.200;5.814;2023-08-08T12:32:26;19.80;64.20
59505;DHT22;45321;53.200;5.814;2023-08-08T12:34:54;19.90;63.90
59505;DHT22;45321;53.200;5.814;2023-08-08T12:37:22;20.00;63.40
59505;DHT22;45321;53.200;5.814;2023-08-08T12:39:48;20.20;65.60
59505;DHT22;45321;53.200;5.814;2023-08-08T12:42:15;20.40;64.40
59505;DHT22;45321;53.200;5.814;2023-08-08T12:44:40;20.60;63.10
59505;DHT22;45321;53.200;5.814;2023-08-08T12:47:06;20.80;64.40
59505;DHT22;45321;53.200;5.814;2023-08-08T12:49:32;20.80;62.90
59505;DHT22;45321;53.200;5.814;2023-08-08T12:51:58;20.80;62.30
59505;DHT22;45321;53.200;5.814;2023-08-08T12:54:23;21.00;63.70
59505;DHT22;45321;53.200;5.814;2023-08-08T12:56:49;21.00;61.80
59505;DHT22;45321;53.200;5.814;2023-08-08T12:59:15;21.00;61.30
59505;DHT22;45321;53.200;5.814;2023-08-08T13:01:40;20.90;61.90
59505;DHT22;45321;53.200;5.814;2023-08-08T13:04:06;20.70;62.40
59505;DHT22;45321;53.200;5.814;2023-08-08T13:06:32;20.50;62.90
59505;DHT22;45321;53.200;5.814;2023-08-08T13:08:59;20.30;63.30
59505;DHT22;45321;53.200;5.814;2023-08-08T13:11:26;20.20;63.20
59505;DHT22;45321;53.200;5.814;2023-08-08T13:13:52;20.20;64.50
59505;DHT22;45321;53.200;5.814;2023-08-08T13:16:17;20.20;63.50
59505;DHT22;45321;53.200;5.814;2023-08-08T13:18:43;20.30;64.20
59505;DHT22;45321;53.200;5.814;2023-08-08T13:21:10;20.40;63.30
59505;DHT22;45321;53.200;5.814;2023-08-08T13:23:36;20.30;62.20
59505;DHT22;45321;53.200;5.814;2023-08-08T13:26:02;20.20;62.80
59505;DHT22;45321;53.200;5.814;2023-08-08T13:28:29;20.20;62.90
59505;DHT22;45321;53.200;5.814;2023-08-08T13:30:55;20.20;63.10
59505;DHT22;45321;53.200;5.814;2023-08-08T13:33:21;20.20;64.50
59505;DHT22;45321;53.200;5.814;2023-08-08T13:35:46;20.20;64.50
59505;DHT22;45321;53.200;5.814;2023-08-08T13:38:12;20.30;63.30
59505;DHT22;45321;53.200;5.814;2023-08-08T13:40:43;20.40;62.70
59505;DHT22;45321;53.200;5.814;2023-08-08T13:43:09;20.60;61.40
59505;DHT22;45321;53.200;5.814;2023-08-08T13:45:35;20.70;61.90
59505;DHT22;45321;53.200;5.814;2023-08-08T13:48:00;20.80;61.10
59505;DHT22;45321;53.200;5.814;2023-08-08T13:50:26;20.90;61.20
59505;DHT22;45321;53.200;5.814;2023-08-08T13:52:52;21.00;60.00
59505;DHT22;45321;53.200;5.814;2023-08-08T13:55:20;21.00;60.80
59505;DHT22;45321;53.200;5.814;2023-08-08T13:57:46;20.90;58.90
59505;DHT22;45321;53.200;5.814;2023-08-08T14:00:12;21.00;61.20
59505;DHT22;45321;53.200;5.814;2023-08-08T14:02:38;21.00;61.10
59505;DHT22;45321;53.200;5.814;2023-08-08T14:05:05;21.00;61.20
59505;DHT22;45321;53.200;5.814;2023-08-08T14:07:34;20.90;61.20
59505;DHT22;45321;53.200;5.814;2023-08-08T14:10:01;20.90;61.20
59505;DHT22;45321;53.200;5.814;2023-08-08T14:12:26;20.80;60.70
59505;DHT22;45321;53.200;5.814;2023-08-08T14:14:52;20.90;61.30
59505;DHT22;45321;53.200;5.814;2023-08-08T14:17:18;20.90;61.60
59505;DHT22;45321;53.200;5.814;2023-08-08T14:19:43;20.90;60.90
59505;DHT22;45321;53.200;5.814;2023-08-08T14:22:09;20.90;60.30
59505;DHT22;45321;53.200;5.814;2023-08-08T14:24:36;20.80;60.10
59505;DHT22;45321;53.200;5.814;2023-08-08T14:27:02;20.80;59.10
59505;DHT22;45321;53.200;5.814;2023-08-08T14:29:28;21.00;59.70
59505;DHT22;45321;53.200;5.814;2023-08-08T14:31:53;21.20;57.90
59505;DHT22;45321;53.200;5.814;2023-08-08T14:34:31;21.30;58.90
59505;DHT22;45321;53.200;5.814;2023-08-08T14:36:58;21.60;56.90
59505;DHT22;45321;53.200;5.814;2023-08-08T14:39:24;22.00;56.00
59505;DHT22;45321;53.200;5.814;2023-08-08T14:41:50;22.20;55.40
59505;DHT22;45321;53.200;5.814;2023-08-08T14:44:16;22.10;54.60
59505;DHT22;45321;53.200;5.814;2023-08-08T14:46:42;21.80;55.70
59505;DHT22;45321;53.200;5.814;2023-08-08T14:49:07;21.90;55.40
59505;DHT22;45321;53.200;5.814;2023-08-08T14:51:34;21.90;55.10
59505;DHT22;45321;53.200;5.814;2023-08-08T14:54:00;21.70;55.10
59505;DHT22;45321;53.200;5.814;2023-08-08T14:56:26;21.50;53.50
59505;DHT22;45321;53.200;5.814;2023-08-08T14:58:52;21.30;55.60
59505;DHT22;45321;53.200;5.814;2023-08-08T15:01:18;21.20;55.40
59505;DHT22;45321;53.200;5.814;2023-08-08T15:03:43;21.20;56.70
59505;DHT22;45321;53.200;5.814;2023-08-08T15:06:09;21.70;56.50
59505;DHT22;45321;53.200;5.814;2023-08-08T15:08:35;22.00;55.90
59505;DHT22;45321;53.200;5.814;2023-08-08T15:11:00;22.20;55.10
59505;DHT22;45321;53.200;5.814;2023-08-08T15:13:26;22.20;53.70
59505;DHT22;45321;53.200;5.814;2023-08-08T15:15:52;21.90;54.60
59505;DHT22;45321;53.200;5.814;2023-08-08T15:18:17;21.70;53.40
59505;DHT22;45321;53.200;5.814;2023-08-08T15:20:43;21.40;54.20
59505;DHT22;45321;53.200;5.814;2023-08-08T15:23:09;21.20;54.90
59505;DHT22;45321;53.200;5.814;2023-08-08T15:25:40;21.10;55.40
59505;DHT22;45321;53.200;5.814;2023-08-08T15:28:07;21.00;57.10